createdAt,value
2023-05-02T00:00:59.727Z,22.3
2023-05-02T00:02:15.861Z,22.3
2023-05-02T00:03:31.998Z,22.3
2023-05-02T00:04:48.130Z,22.2
2023-05-02T00:06:04.275Z,22.3
2023-05-02T00:07:20.412Z,22.2
2023-05-02T00:09:52.670Z,22.3
2023-05-02T00:11:08.805Z,22.2
2023-05-02T00:12:25.029Z,22.2
2023-05-02T00:13:40.261Z,22.2
2023-05-02T00:14:55.475Z,22.2
2023-05-02T00:16:11.612Z,22.3
2023-05-02T00:18:43.886Z,22.3
2023-05-02T00:20:00.017Z,22.3
2023-05-02T00:21:16.152Z,22.3
2023-05-02T00:22:32.300Z,22.3
2023-05-02T00:23:48.431Z,22.3
2023-05-02T00:25:04.567Z,22.3
2023-05-02T00:26:20.688Z,22.3
2023-05-02T00:27:36.829Z,22.3
2023-05-02T00:28:52.971Z,22.2
2023-05-02T00:30:09.114Z,22.2
2023-05-02T00:31:25.245Z,22.2
2023-05-02T00:32:41.487Z,22.2
2023-05-02T00:33:57.627Z,22.2
2023-05-02T00:35:13.777Z,22.2
2023-05-02T00:36:29.910Z,22.2
2023-05-02T00:37:46.053Z,22.2
2023-05-02T00:39:02.183Z,22.2
2023-05-02T00:40:18.304Z,22.2
2023-05-02T00:41:34.464Z,22.2
2023-05-02T00:42:50.596Z,22.2
2023-05-02T00:44:06.729Z,22.2
2023-05-02T00:45:22.865Z,22.2
2023-05-02T00:46:38.982Z,22.2
2023-05-02T00:47:55.149Z,22.2
2023-05-02T00:49:11.274Z,22.2
2023-05-02T00:50:27.408Z,22.2
2023-05-02T00:51:43.538Z,22.2
2023-05-02T00:52:59.676Z,22.2
2023-05-02T00:54:15.821Z,22.2
2023-05-02T00:55:31.964Z,22.2
2023-05-02T00:56:48.079Z,22.2
2023-05-02T00:58:04.228Z,22.2
2023-05-02T00:59:20.354Z,22.2
2023-05-02T01:00:36.505Z,22.2
2023-05-02T01:01:52.646Z,22.2
2023-05-02T01:03:08.778Z,22.2
2023-05-02T01:04:24.898Z,22.2
2023-05-02T01:05:41.034Z,22.2
2023-05-02T01:06:57.186Z,22.2
2023-05-02T01:08:13.320Z,22.2
2023-05-02T01:09:29.446Z,22.2
2023-05-02T01:10:45.584Z,22.2
2023-05-02T01:12:01.720Z,22.2
2023-05-02T01:13:17.873Z,22.2
2023-05-02T01:14:33.992Z,22.2
2023-05-02T01:15:50.136Z,22.2
2023-05-02T01:17:06.266Z,22.2
2023-05-02T01:18:22.396Z,22.1
2023-05-02T01:19:38.605Z,22.1
2023-05-02T01:20:53.825Z,22.1
2023-05-02T01:22:08.967Z,22.1
2023-05-02T01:23:25.117Z,22.1
2023-05-02T01:24:41.253Z,22.1
2023-05-02T01:25:57.380Z,22.1
2023-05-02T01:27:13.512Z,22.1
2023-05-02T01:28:29.643Z,22.1
2023-05-02T01:29:45.789Z,22.1
2023-05-02T01:31:01.923Z,22.1
2023-05-02T01:32:18.068Z,22.1
2023-05-02T01:34:50.334Z,22.1
2023-05-02T01:36:06.487Z,22.1
2023-05-02T01:37:22.606Z,22.1
2023-05-02T01:38:38.746Z,22.1
2023-05-02T01:39:54.888Z,22.1
2023-05-02T01:41:11.005Z,22.1
2023-05-02T01:42:27.163Z,22.1
2023-05-02T01:43:43.306Z,22.1
2023-05-02T01:44:59.425Z,22.1
2023-05-02T01:46:15.563Z,22.1
2023-05-02T01:47:31.689Z,22.1
2023-05-02T01:48:47.842Z,22.1
2023-05-02T01:50:03.966Z,22.1
2023-05-02T01:51:20.118Z,22.1
2023-05-02T01:52:36.235Z,22.1
2023-05-02T01:55:08.526Z,22.1
2023-05-02T01:56:24.649Z,22.1
2023-05-02T01:57:40.798Z,22.1
2023-05-02T01:58:56.933Z,22.1
2023-05-02T02:00:13.052Z,22.1
2023-05-02T02:01:29.196Z,22.1
2023-05-02T02:02:45.338Z,22.1
2023-05-02T02:04:01.478Z,22.1
2023-05-02T02:05:17.608Z,22.1
2023-05-02T02:06:33.738Z,22.1
2023-05-02T02:07:49.897Z,22.1
2023-05-02T02:09:06.083Z,22.1
2023-05-02T02:10:21.341Z,22.1
2023-05-02T02:11:36.544Z,22.1
2023-05-02T02:12:52.674Z,22.1
2023-05-02T02:14:08.827Z,22.1
2023-05-02T02:15:24.947Z,22.1
2023-05-02T02:16:41.077Z,22.1
2023-05-02T02:17:57.237Z,22.1
2023-05-02T02:19:13.355Z,22.1
2023-05-02T02:20:29.505Z,22.1
2023-05-02T02:21:45.620Z,22.1
2023-05-02T02:23:01.768Z,22.1
2023-05-02T02:24:17.902Z,22.1
2023-05-02T02:25:34.036Z,22.1
2023-05-02T02:26:50.178Z,22.1
2023-05-02T02:28:06.320Z,22.1
2023-05-02T02:29:22.447Z,22.1
2023-05-02T02:30:38.598Z,22.1
2023-05-02T02:31:54.719Z,22.1
2023-05-02T02:33:10.858Z,22.1
2023-05-02T02:34:26.985Z,22.1
2023-05-02T02:35:43.122Z,22.1
2023-05-02T02:36:59.277Z,22.1
2023-05-02T02:38:15.415Z,22
2023-05-02T02:39:31.539Z,22
2023-05-02T02:40:47.675Z,22.1
2023-05-02T02:42:03.806Z,22
2023-05-02T02:43:20.014Z,22
2023-05-02T02:44:35.257Z,22
2023-05-02T02:45:51.453Z,22
2023-05-02T02:47:06.646Z,22
2023-05-02T02:48:22.788Z,22
2023-05-02T02:49:38.910Z,22
2023-05-02T02:50:55.047Z,22
2023-05-02T02:52:11.188Z,22
2023-05-02T02:53:27.335Z,22
2023-05-02T02:54:43.465Z,22
2023-05-02T02:55:59.589Z,22
2023-05-02T02:57:15.739Z,22
2023-05-02T02:58:31.858Z,22
2023-05-02T02:59:48.022Z,21.9
2023-05-02T03:01:04.153Z,22
2023-05-02T03:02:20.282Z,21.9
2023-05-02T03:03:36.424Z,22
2023-05-02T03:04:52.553Z,21.9
2023-05-02T03:06:08.691Z,21.9
2023-05-02T03:07:24.839Z,21.9
2023-05-02T03:08:40.956Z,21.9
2023-05-02T03:09:57.089Z,21.9
2023-05-02T03:11:13.226Z,21.9
2023-05-02T03:12:29.387Z,21.9
2023-05-02T03:13:45.501Z,21.9
2023-05-02T03:15:01.657Z,21.9
2023-05-02T03:16:17.787Z,21.9
2023-05-02T03:17:33.910Z,21.9
2023-05-02T03:18:50.128Z,21.9
2023-05-02T03:20:05.357Z,22
2023-05-02T03:21:20.556Z,21.9
2023-05-02T03:22:36.706Z,22
2023-05-02T03:23:52.840Z,22
2023-05-02T03:25:08.971Z,21.9
2023-05-02T03:26:25.104Z,22
2023-05-02T03:27:41.249Z,21.9
2023-05-02T03:28:57.383Z,21.9
2023-05-02T03:30:13.528Z,22
2023-05-02T03:31:29.648Z,21.9
2023-05-02T03:32:45.785Z,22
2023-05-02T03:34:01.931Z,21.9
2023-05-02T03:35:18.061Z,21.9
2023-05-02T03:36:34.214Z,21.9
2023-05-02T03:37:50.344Z,21.9
2023-05-02T03:39:06.475Z,21.9
2023-05-02T03:40:22.611Z,21.9
2023-05-02T03:41:38.755Z,21.9
2023-05-02T03:42:54.890Z,21.9
2023-05-02T03:44:11.024Z,21.9
2023-05-02T03:45:27.148Z,21.9
2023-05-02T03:46:43.292Z,21.9
2023-05-02T03:47:59.436Z,21.9
2023-05-02T03:49:15.564Z,21.9
2023-05-02T03:50:31.706Z,21.9
2023-05-02T03:51:47.842Z,21.9
2023-05-02T03:53:04.025Z,21.9
2023-05-02T03:54:19.263Z,21.9
2023-05-02T03:55:34.482Z,21.9
2023-05-02T03:56:50.607Z,21.9
2023-05-02T03:58:06.758Z,21.9
2023-05-02T03:59:22.888Z,21.9
2023-05-02T04:00:39.024Z,21.9
2023-05-02T04:01:55.159Z,21.9
2023-05-02T04:03:11.284Z,21.9
2023-05-02T04:04:27.428Z,21.9
2023-05-02T04:05:43.564Z,21.9
2023-05-02T04:06:59.711Z,21.9
2023-05-02T04:08:15.833Z,21.9
2023-05-02T04:09:31.966Z,21.9
2023-05-02T04:10:48.114Z,21.9
2023-05-02T04:12:04.249Z,21.9
2023-05-02T04:13:20.384Z,21.9
2023-05-02T04:14:36.508Z,21.9
2023-05-02T04:15:52.650Z,21.9
2023-05-02T04:17:08.805Z,21.9
2023-05-02T04:18:24.926Z,21.9
2023-05-02T04:19:41.068Z,21.9
2023-05-02T04:20:57.196Z,21.9
2023-05-02T04:22:13.337Z,21.9
2023-05-02T04:23:29.487Z,21.9
2023-05-02T04:24:45.607Z,21.9
2023-05-02T04:26:01.749Z,21.9
2023-05-02T04:27:17.936Z,21.9
2023-05-02T04:28:33.187Z,21.9
2023-05-02T04:29:49.361Z,21.9
2023-05-02T04:31:04.577Z,21.9
2023-05-02T04:32:20.699Z,21.9
2023-05-02T04:33:36.853Z,22
2023-05-02T04:34:52.989Z,22
2023-05-02T04:36:09.114Z,22
2023-05-02T04:38:41.380Z,21.9
2023-05-02T04:39:57.541Z,21.9
2023-05-02T04:41:13.662Z,22
2023-05-02T04:42:29.814Z,22
2023-05-02T04:43:45.946Z,22
2023-05-02T04:45:02.079Z,22
2023-05-02T04:46:18.227Z,22
2023-05-02T04:47:34.352Z,22
2023-05-02T04:48:50.489Z,22
2023-05-02T04:50:06.616Z,22
2023-05-02T04:51:22.761Z,22
2023-05-02T04:52:38.909Z,22
2023-05-02T04:53:55.030Z,22
2023-05-02T04:55:11.165Z,22
2023-05-02T04:56:27.291Z,22
2023-05-02T04:57:43.426Z,22
2023-05-02T04:58:59.577Z,22
2023-05-02T05:00:15.708Z,22
2023-05-02T05:01:31.839Z,22
2023-05-02T05:02:48.039Z,22
2023-05-02T05:04:03.270Z,22
2023-05-02T05:05:18.479Z,22
2023-05-02T05:06:33.627Z,22
2023-05-02T05:07:49.779Z,22
2023-05-02T05:09:05.922Z,22
2023-05-02T05:11:38.188Z,22
2023-05-02T05:12:54.308Z,22
2023-05-02T05:14:10.459Z,22
2023-05-02T05:15:26.608Z,22
2023-05-02T05:16:42.724Z,22
2023-05-02T05:17:58.862Z,22
2023-05-02T05:19:14.988Z,22
2023-05-02T05:20:31.153Z,22
2023-05-02T05:21:47.274Z,22
2023-05-02T05:23:03.414Z,22.1
2023-05-02T05:24:19.542Z,22.1
2023-05-02T05:25:35.680Z,22.1
2023-05-02T05:26:51.819Z,22.1
2023-05-02T05:28:07.969Z,22.1
2023-05-02T05:29:24.092Z,22.1
2023-05-02T05:30:40.219Z,22.1
2023-05-02T05:31:56.352Z,22.1
2023-05-02T05:33:12.504Z,22.1
2023-05-02T05:34:28.636Z,22.1
2023-05-02T05:35:44.773Z,22.1
2023-05-02T05:37:00.910Z,22.1
2023-05-02T05:38:17.032Z,22.1
2023-05-02T05:39:33.194Z,22.1
2023-05-02T05:40:49.313Z,22.1
2023-05-02T05:42:05.446Z,22.1
2023-05-02T05:43:21.588Z,22.1
2023-05-02T05:44:37.715Z,22.1
2023-05-02T05:45:53.862Z,22
2023-05-02T05:47:10.006Z,22
2023-05-02T05:48:26.134Z,22
2023-05-02T05:49:42.269Z,22
2023-05-02T05:50:58.398Z,22
2023-05-02T05:52:14.561Z,22
2023-05-02T05:53:30.754Z,22.1
2023-05-02T05:54:45.975Z,22
2023-05-02T05:56:01.194Z,22.1
2023-05-02T05:57:17.334Z,22.1
2023-05-02T05:58:33.467Z,22.1
2023-05-02T05:59:49.591Z,22.1
2023-05-02T06:01:05.722Z,22.1
2023-05-02T06:03:38.013Z,22.1
2023-05-02T06:04:54.149Z,22.1
2023-05-02T06:06:10.280Z,22.1
2023-05-02T06:07:26.410Z,22.1
2023-05-02T06:08:42.558Z,22.1
2023-05-02T06:09:58.692Z,22.1
2023-05-02T06:11:14.818Z,22.2
2023-05-02T06:12:30.948Z,22.2
2023-05-02T06:13:47.080Z,22.2
2023-05-02T06:15:03.245Z,22.2
2023-05-02T06:16:19.365Z,22.2
2023-05-02T06:17:35.507Z,22.3
2023-05-02T06:18:51.635Z,22.3
2023-05-02T06:20:07.766Z,22.3
2023-05-02T06:21:23.926Z,22.3
2023-05-02T06:22:40.060Z,22.4
2023-05-02T06:23:56.178Z,22.4
2023-05-02T06:25:12.318Z,22.4
2023-05-02T06:26:28.457Z,22.4
2023-05-02T06:27:44.666Z,22.4
2023-05-02T06:28:59.945Z,22.4
2023-05-02T06:30:15.124Z,22.4
2023-05-02T06:31:31.277Z,22.4
2023-05-02T06:32:47.405Z,22.4
2023-05-02T06:34:03.539Z,22.4
2023-05-02T06:35:19.671Z,22.4
2023-05-02T06:36:35.797Z,22.5
2023-05-02T06:37:51.958Z,22.5
2023-05-02T06:39:08.083Z,22.5
2023-05-02T06:40:24.216Z,22.6
2023-05-02T06:41:40.364Z,22.6
2023-05-02T06:42:56.479Z,22.6
2023-05-02T06:44:12.641Z,22.7
2023-05-02T06:45:28.762Z,22.7
2023-05-02T06:46:44.909Z,22.7
2023-05-02T06:48:01.029Z,22.7
2023-05-02T06:49:17.171Z,22.7
2023-05-02T06:50:33.308Z,22.7
2023-05-02T06:51:49.452Z,22.8
2023-05-02T06:53:05.574Z,22.8
2023-05-02T06:54:21.709Z,22.8
2023-05-02T06:55:37.841Z,22.8
2023-05-02T06:56:53.989Z,22.8
2023-05-02T06:58:10.132Z,22.8
2023-05-02T06:59:26.270Z,22.8
2023-05-02T07:00:42.402Z,22.9
2023-05-02T07:01:58.596Z,22.8
2023-05-02T07:03:13.835Z,22.9
2023-05-02T07:04:30.009Z,22.9
2023-05-02T07:05:45.217Z,22.8
2023-05-02T07:07:01.369Z,22.8
2023-05-02T07:08:17.492Z,22.8
2023-05-02T07:09:33.633Z,22.8
2023-05-02T07:10:49.767Z,22.8
2023-05-02T07:12:05.908Z,22.9
2023-05-02T07:13:22.045Z,22.9
2023-05-02T07:14:38.185Z,22.9
2023-05-02T07:15:54.315Z,22.9
2023-05-02T07:18:26.582Z,22.9
2023-05-02T07:19:42.727Z,23
2023-05-02T07:20:58.856Z,23
2023-05-02T07:22:14.991Z,23.1
2023-05-02T07:23:31.137Z,23.1
2023-05-02T07:24:47.260Z,23.3
2023-05-02T07:26:03.413Z,23.3
2023-05-02T07:27:19.552Z,23.3
2023-05-02T07:28:35.687Z,23.3
2023-05-02T07:29:51.811Z,23.3
2023-05-02T07:31:07.945Z,23.3
2023-05-02T07:32:24.098Z,23.3
2023-05-02T07:33:40.227Z,23.3
2023-05-02T07:34:56.350Z,23.3
2023-05-02T07:36:12.484Z,23.3
2023-05-02T07:37:28.688Z,23.3
2023-05-02T07:38:43.928Z,23.3
2023-05-02T07:39:59.139Z,23.4
2023-05-02T07:41:15.263Z,23.4
2023-05-02T07:42:31.419Z,23.4
2023-05-02T07:43:47.547Z,23.4
2023-05-02T07:45:03.678Z,23.4
2023-05-02T07:46:19.000Z,23.4
2023-05-02T07:47:35.944Z,23.4
2023-05-02T07:48:52.089Z,23.4
2023-05-02T07:50:08.226Z,23.4
2023-05-02T07:51:24.352Z,23.4
2023-05-02T07:52:40.501Z,23.4
2023-05-02T07:53:56.635Z,23.4
2023-05-02T07:55:12.764Z,23.4
2023-05-02T07:56:28.906Z,23.5
2023-05-02T07:57:45.039Z,23.5
2023-05-02T07:59:01.174Z,23.4
2023-05-02T08:00:17.311Z,23.4
2023-05-02T08:01:33.462Z,23.4
2023-05-02T08:02:49.589Z,23.4
2023-05-02T08:04:05.720Z,23.4
2023-05-02T08:05:21.862Z,23.4
2023-05-02T08:06:37.990Z,23.4
2023-05-02T08:07:54.132Z,23.4
2023-05-02T08:09:10.265Z,23.4
2023-05-02T08:10:26.402Z,23.4
2023-05-02T08:11:42.596Z,23.4
2023-05-02T08:12:57.832Z,23.5
2023-05-02T08:14:13.032Z,23.5
2023-05-02T08:15:28.201Z,23.5
2023-05-02T08:16:44.348Z,23.5
2023-05-02T08:18:00.477Z,23.5
2023-05-02T08:19:16.603Z,23.5
2023-05-02T08:20:32.750Z,23.5
2023-05-02T08:21:48.865Z,23.5
2023-05-02T08:23:05.016Z,23.5
2023-05-02T08:24:21.147Z,23.5
2023-05-02T08:25:37.292Z,23.5
2023-05-02T08:26:53.427Z,23.5
2023-05-02T08:28:09.566Z,23.4
2023-05-02T08:29:25.713Z,23.4
2023-05-02T08:30:41.840Z,23.5
2023-05-02T08:31:57.963Z,23.5
2023-05-02T08:33:14.096Z,23.5
2023-05-02T08:34:30.235Z,23.5
2023-05-02T08:35:46.384Z,23.5
2023-05-02T08:37:02.509Z,23.5
2023-05-02T08:38:18.653Z,23.5
2023-05-02T08:39:34.785Z,23.5
2023-05-02T08:40:50.926Z,23.5
2023-05-02T08:42:07.072Z,23.5
2023-05-02T08:43:23.198Z,23.5
2023-05-02T08:44:39.328Z,23.5
2023-05-02T08:45:55.474Z,23.6
2023-05-02T08:47:11.608Z,23.6
2023-05-02T08:48:27.739Z,23.7
2023-05-02T08:49:43.889Z,23.7
2023-05-02T08:51:00.012Z,23.8
2023-05-02T08:52:16.145Z,23.9
2023-05-02T08:53:32.275Z,23.9
2023-05-02T08:54:48.436Z,24
2023-05-02T08:56:04.561Z,24
2023-05-02T08:57:20.691Z,24.1
2023-05-02T08:58:36.821Z,24.1
2023-05-02T08:59:52.954Z,24.2
2023-05-02T09:01:09.111Z,24.3
2023-05-02T09:02:25.305Z,24.3
2023-05-02T09:03:40.536Z,24.4
2023-05-02T09:04:55.753Z,24.4
2023-05-02T09:06:11.882Z,24.5
2023-05-02T09:07:28.016Z,24.5
2023-05-02T09:08:44.152Z,24.5
2023-05-02T09:10:00.291Z,24.6
2023-05-02T09:11:16.427Z,24.6
2023-05-02T09:12:32.681Z,24.6
2023-05-02T09:13:48.830Z,24.7
2023-05-02T09:15:04.957Z,24.7
2023-05-02T09:16:21.093Z,24.7
2023-05-02T09:17:37.232Z,24.8
2023-05-02T09:18:53.377Z,24.8
2023-05-02T09:20:09.494Z,24.9
2023-05-02T09:21:25.633Z,25
2023-05-02T09:22:41.763Z,25
2023-05-02T09:23:57.925Z,25.1
2023-05-02T09:25:14.051Z,25.1
2023-05-02T09:26:30.176Z,25.1
2023-05-02T09:27:46.323Z,25.1
2023-05-02T09:29:02.441Z,25
2023-05-02T09:30:18.596Z,25
2023-05-02T09:31:34.723Z,25
2023-05-02T09:32:50.869Z,25
2023-05-02T09:34:06.991Z,25
2023-05-02T09:35:23.125Z,24.9
2023-05-02T09:36:39.278Z,24.9
2023-05-02T09:37:55.404Z,24.9
2023-05-02T09:39:11.554Z,24.8
2023-05-02T09:40:27.685Z,24.8
2023-05-02T09:41:43.801Z,24.8
2023-05-02T09:42:59.963Z,24.7
2023-05-02T09:44:16.098Z,24.7
2023-05-02T09:45:32.230Z,24.7
2023-05-02T09:46:48.362Z,24.7
2023-05-02T09:48:04.496Z,24.7
2023-05-02T09:49:20.646Z,24.7
2023-05-02T09:50:36.768Z,24.7
2023-05-02T09:51:52.903Z,24.8
2023-05-02T09:53:09.033Z,24.8
2023-05-02T09:54:25.181Z,24.8
2023-05-02T09:55:41.314Z,24.8
2023-05-02T09:56:57.459Z,24.8
2023-05-02T09:58:13.591Z,24.8
2023-05-02T09:59:29.783Z,24.8
2023-05-02T10:00:45.013Z,24.7
2023-05-02T10:02:00.214Z,24.7
2023-05-02T10:03:15.366Z,24.7
2023-05-02T10:04:31.526Z,24.7
2023-05-02T10:05:47.646Z,24.7
2023-05-02T10:07:03.778Z,24.7
2023-05-02T10:08:19.923Z,24.7
2023-05-02T10:09:36.050Z,24.7
2023-05-02T10:10:52.210Z,24.6
2023-05-02T10:12:08.330Z,24.6
2023-05-02T10:13:24.468Z,24.6
2023-05-02T10:14:40.602Z,24.6
2023-05-02T10:15:56.733Z,24.5
2023-05-02T10:17:12.875Z,24.5
2023-05-02T10:18:29.018Z,24.5
2023-05-02T10:19:45.156Z,24.5
2023-05-02T10:21:01.287Z,24.5
2023-05-02T10:22:17.420Z,24.5
2023-05-02T10:23:33.556Z,24.5
2023-05-02T10:24:49.702Z,24.5
2023-05-02T10:26:05.834Z,24.5
2023-05-02T10:27:21.967Z,24.5
2023-05-02T10:28:38.107Z,24.5
2023-05-02T10:29:54.238Z,24.5
2023-05-02T10:31:10.381Z,24.5
2023-05-02T10:32:26.519Z,24.6
2023-05-02T10:33:42.647Z,24.6
2023-05-02T10:34:58.770Z,24.6
2023-05-02T10:36:14.929Z,24.6
2023-05-02T10:37:31.060Z,24.6
2023-05-02T10:38:47.186Z,24.5
2023-05-02T10:40:03.320Z,24.5
2023-05-02T10:41:19.453Z,24.5
2023-05-02T10:42:35.603Z,24.6
2023-05-02T10:43:51.749Z,24.6
2023-05-02T10:45:07.865Z,24.6
2023-05-02T10:46:24.000Z,24.6
2023-05-02T10:47:40.148Z,24.6
2023-05-02T10:48:56.296Z,24.6
2023-05-02T10:50:12.472Z,24.7
2023-05-02T10:51:27.740Z,24.7
2023-05-02T10:52:42.944Z,24.7
2023-05-02T10:53:59.075Z,24.7
2023-05-02T10:55:15.212Z,24.7
2023-05-02T10:56:31.349Z,24.7
2023-05-02T10:57:47.470Z,24.7
2023-05-02T10:59:03.631Z,24.7
2023-05-02T11:00:19.756Z,24.7
2023-05-02T11:01:35.889Z,24.8
2023-05-02T11:02:52.021Z,24.9
2023-05-02T11:04:08.166Z,25
2023-05-02T11:05:24.302Z,25.2
2023-05-02T11:06:40.435Z,25.3
2023-05-02T11:07:56.573Z,25.5
2023-05-02T11:09:12.713Z,25.5
2023-05-02T11:10:28.838Z,25.5
2023-05-02T11:11:44.999Z,25.5
2023-05-02T11:13:01.119Z,25.6
2023-05-02T11:14:17.257Z,25.7
2023-05-02T11:15:33.389Z,25.7
2023-05-02T11:16:49.533Z,25.7
2023-05-02T11:18:05.680Z,25.7
2023-05-02T11:19:21.802Z,25.6
2023-05-02T11:20:37.935Z,25.6
2023-05-02T11:21:54.067Z,25.5
2023-05-02T11:23:10.199Z,25.5
2023-05-02T11:24:26.404Z,25.5
2023-05-02T11:25:41.658Z,25.5
2023-05-02T11:26:56.855Z,25.5
2023-05-02T11:28:13.006Z,25.5
2023-05-02T11:29:29.129Z,25.6
2023-05-02T11:30:45.259Z,25.6
2023-05-02T11:32:01.407Z,25.8
2023-05-02T11:33:17.537Z,25.9
2023-05-02T11:34:33.687Z,26
2023-05-02T11:35:49.822Z,26.1
2023-05-02T11:37:05.941Z,26.1
2023-05-02T11:38:22.092Z,26
2023-05-02T11:39:38.215Z,26
2023-05-02T11:40:54.354Z,25.9
2023-05-02T11:42:10.493Z,25.9
2023-05-02T11:43:26.628Z,25.8
2023-05-02T11:44:42.759Z,25.8
2023-05-02T11:45:58.888Z,25.8
2023-05-02T11:47:15.047Z,25.7
2023-05-02T11:48:31.189Z,25.7
2023-05-02T11:49:47.306Z,25.6
2023-05-02T11:51:03.438Z,25.6
2023-05-02T11:52:19.584Z,25.7
2023-05-02T11:53:35.729Z,25.7
2023-05-02T11:54:51.860Z,25.7
2023-05-02T11:56:08.004Z,25.7
2023-05-02T11:57:24.121Z,25.7
2023-05-02T11:58:40.323Z,25.7
2023-05-02T11:59:55.565Z,25.7
2023-05-02T12:01:11.757Z,25.7
2023-05-02T12:02:26.967Z,25.7
2023-05-02T12:03:43.096Z,25.7
2023-05-02T12:04:59.238Z,25.7
2023-05-02T12:06:15.363Z,25.7
2023-05-02T12:07:31.493Z,25.7
2023-05-02T12:08:47.637Z,25.6
2023-05-02T12:10:03.779Z,25.6
2023-05-02T12:11:19.918Z,25.7
2023-05-02T12:12:36.047Z,25.7
2023-05-02T12:13:52.174Z,25.7
2023-05-02T12:15:08.318Z,25.7
2023-05-02T12:16:24.473Z,25.8
2023-05-02T12:17:40.605Z,25.8
2023-05-02T12:18:56.728Z,25.8
2023-05-02T12:20:12.864Z,25.8
2023-05-02T12:21:28.990Z,25.8
2023-05-02T12:22:45.144Z,25.8
2023-05-02T12:24:01.279Z,25.9
2023-05-02T12:25:17.409Z,25.9
2023-05-02T12:26:33.544Z,25.9
2023-05-02T12:27:49.681Z,25.9
2023-05-02T12:29:05.821Z,25.9
2023-05-02T12:30:21.971Z,25.9
2023-05-02T12:31:38.094Z,25.9
2023-05-02T12:32:54.231Z,25.9
2023-05-02T12:34:10.417Z,25.8
2023-05-02T12:35:25.664Z,25.8
2023-05-02T12:36:40.858Z,25.8
2023-05-02T12:37:57.000Z,25.8
2023-05-02T12:39:13.156Z,25.8
2023-05-02T12:40:29.285Z,25.8
2023-05-02T12:41:45.415Z,25.8
2023-05-02T12:43:01.552Z,25.8
2023-05-02T12:44:17.674Z,25.8
2023-05-02T12:45:33.839Z,25.8
2023-05-02T12:46:49.972Z,25.8
2023-05-02T12:48:06.089Z,25.8
2023-05-02T12:49:22.226Z,25.8
2023-05-02T12:50:38.368Z,25.8
2023-05-02T12:51:54.502Z,25.8
2023-05-02T12:53:10.654Z,25.8
2023-05-02T12:54:26.782Z,25.8
2023-05-02T12:55:42.914Z,25.8
2023-05-02T12:56:59.044Z,25.7
2023-05-02T12:58:15.184Z,25.7
2023-05-02T12:59:31.327Z,25.7
2023-05-02T13:00:47.462Z,25.7
2023-05-02T13:02:03.600Z,25.6
2023-05-02T13:03:19.729Z,25.6
2023-05-02T13:04:35.880Z,25.5
2023-05-02T13:05:52.004Z,25.5
2023-05-02T13:07:08.147Z,25.5
2023-05-02T13:08:24.343Z,25.5
2023-05-02T13:09:39.567Z,25.4
2023-05-02T13:10:54.779Z,25.4
2023-05-02T13:12:09.931Z,25.4
2023-05-02T13:13:26.083Z,25.4
2023-05-02T13:14:42.217Z,25.4
2023-05-02T13:15:58.345Z,25.4
2023-05-02T13:17:14.477Z,25.4
2023-05-02T13:18:30.612Z,25.4
2023-05-02T13:19:46.770Z,25.4
2023-05-02T13:21:02.898Z,25.4
2023-05-02T13:22:19.036Z,25.3
2023-05-02T13:23:35.152Z,25.3
2023-05-02T13:24:51.293Z,25.2
2023-05-02T13:26:07.439Z,25.2
2023-05-02T13:27:23.577Z,25.1
2023-05-02T13:28:39.710Z,25.1
2023-05-02T13:29:55.841Z,25
2023-05-02T13:31:11.982Z,25
2023-05-02T13:32:28.127Z,25
2023-05-02T13:33:44.250Z,24.9
2023-05-02T13:35:00.386Z,24.9
2023-05-02T13:36:16.523Z,24.8
2023-05-02T13:37:32.658Z,24.8
2023-05-02T13:38:48.808Z,24.8
2023-05-02T13:41:21.068Z,24.7
2023-05-02T13:42:37.201Z,24.7
2023-05-02T13:43:53.342Z,24.7
2023-05-02T13:45:09.490Z,24.7
2023-05-02T13:46:25.616Z,24.7
2023-05-02T13:47:41.758Z,24.7
2023-05-02T13:48:57.894Z,24.7
2023-05-02T13:50:14.017Z,24.7
2023-05-02T13:51:30.159Z,24.8
2023-05-02T13:52:46.293Z,24.8
2023-05-02T13:54:02.423Z,24.9
2023-05-02T13:55:18.574Z,24.9
2023-05-02T13:56:34.696Z,24.9
2023-05-02T13:57:50.843Z,24.9
2023-05-02T13:59:07.038Z,25
2023-05-02T14:00:22.271Z,25
2023-05-02T14:01:37.492Z,25
2023-05-02T14:02:53.624Z,24.9
2023-05-02T14:04:09.754Z,24.9
2023-05-02T14:05:25.884Z,24.9
2023-05-02T14:06:42.018Z,24.9
2023-05-02T14:07:58.173Z,24.9
2023-05-02T14:09:14.288Z,24.9
2023-05-02T14:10:30.427Z,24.8
2023-05-02T14:11:46.572Z,24.8
2023-05-02T14:13:02.701Z,24.8
2023-05-02T14:14:18.843Z,24.8
2023-05-02T14:15:34.969Z,24.7
2023-05-02T14:16:51.116Z,24.7
2023-05-02T14:18:07.251Z,24.7
2023-05-02T14:19:23.381Z,24.7
2023-05-02T14:20:39.532Z,24.6
2023-05-02T14:21:55.666Z,24.6
2023-05-02T14:23:11.787Z,24.6
2023-05-02T14:24:27.925Z,24.5
2023-05-02T14:25:44.057Z,24.5
2023-05-02T14:27:00.199Z,24.5
2023-05-02T14:28:16.346Z,24.4
2023-05-02T14:29:32.466Z,24.4
2023-05-02T14:30:48.612Z,24.5
2023-05-02T14:32:04.735Z,24.5
2023-05-02T14:33:20.949Z,24.5
2023-05-02T14:34:36.192Z,24.5
2023-05-02T14:35:52.384Z,24.5
2023-05-02T14:37:07.577Z,24.5
2023-05-02T14:38:23.720Z,24.5
2023-05-02T14:39:39.843Z,24.5
2023-05-02T14:40:55.977Z,24.5
2023-05-02T14:42:12.115Z,24.5
2023-05-02T14:43:28.274Z,24.5
2023-05-02T14:44:44.400Z,24.5
2023-05-02T14:46:00.537Z,24.5
2023-05-02T14:47:16.661Z,24.5
2023-05-02T14:48:32.788Z,24.5
2023-05-02T14:49:48.957Z,24.5
2023-05-02T14:51:05.075Z,24.5
2023-05-02T14:52:21.000Z,24.5
2023-05-02T14:53:37.357Z,24.4
2023-05-02T14:54:53.477Z,24.4
2023-05-02T14:56:09.637Z,24.4
2023-05-02T14:57:25.765Z,24.3
2023-05-02T14:58:41.889Z,24.3
2023-05-02T14:59:58.039Z,24.3
2023-05-02T15:01:14.163Z,24.2
2023-05-02T15:02:30.322Z,24.2
2023-05-02T15:03:46.436Z,24.2
2023-05-02T15:05:02.574Z,24.1
2023-05-02T15:06:18.714Z,24.1
2023-05-02T15:07:34.853Z,24.2
2023-05-02T15:08:51.061Z,24.2
2023-05-02T15:10:06.309Z,24.1
2023-05-02T15:11:21.525Z,24.1
2023-05-02T15:12:37.671Z,24.1
2023-05-02T15:13:53.800Z,24.1
2023-05-02T15:15:09.938Z,24.1
2023-05-02T15:16:26.063Z,24.1
2023-05-02T15:17:42.198Z,24.1
2023-05-02T15:18:58.343Z,24.1
2023-05-02T15:20:14.472Z,24.1
2023-05-02T15:21:30.608Z,24
2023-05-02T15:22:46.740Z,24
2023-05-02T15:24:02.886Z,24
2023-05-02T15:25:19.027Z,24
2023-05-02T15:26:35.161Z,24
2023-05-02T15:27:51.290Z,23.9
2023-05-02T15:29:07.426Z,23.9
2023-05-02T15:30:23.563Z,23.9
2023-05-02T15:31:39.710Z,23.9
2023-05-02T15:32:55.846Z,23.9
2023-05-02T15:34:11.977Z,23.9
2023-05-02T15:35:28.108Z,23.9
2023-05-02T15:36:44.240Z,23.9
2023-05-02T15:38:00.388Z,23.9
2023-05-02T15:39:16.527Z,23.9
2023-05-02T15:40:32.661Z,23.9
2023-05-02T15:41:48.785Z,23.9
2023-05-02T15:43:04.990Z,23.9
2023-05-02T15:44:20.226Z,23.9
2023-05-02T15:45:35.422Z,23.8
2023-05-02T15:46:51.559Z,23.8
2023-05-02T15:48:07.709Z,23.7
2023-05-02T15:49:23.849Z,23.7
2023-05-02T15:50:39.966Z,23.7
2023-05-02T15:51:56.104Z,23.6
2023-05-02T15:53:12.231Z,23.6
2023-05-02T15:54:28.385Z,23.6
2023-05-02T15:55:44.516Z,23.6
2023-05-02T15:57:00.663Z,23.6
2023-05-02T15:58:16.797Z,23.6
2023-05-02T15:59:32.917Z,23.6
2023-05-02T16:00:49.060Z,23.6
2023-05-02T16:02:05.199Z,23.6
2023-05-02T16:03:21.333Z,23.6
2023-05-02T16:04:37.464Z,23.6
2023-05-02T16:05:53.596Z,23.6
2023-05-02T16:07:09.747Z,23.6
2023-05-02T16:08:25.880Z,23.6
2023-05-02T16:09:42.019Z,23.6
2023-05-02T16:10:58.151Z,23.6
2023-05-02T16:12:14.287Z,23.5
2023-05-02T16:13:30.425Z,23.5
2023-05-02T16:14:46.565Z,23.5
2023-05-02T16:16:02.693Z,23.5
2023-05-02T16:17:18.898Z,23.5
2023-05-02T16:18:34.128Z,23.5
2023-05-02T16:19:50.329Z,23.4
2023-05-02T16:21:05.530Z,23.4
2023-05-02T16:22:21.778Z,23.4
2023-05-02T16:23:37.927Z,23.3
2023-05-02T16:24:54.061Z,23.3
2023-05-02T16:26:10.202Z,23.3
2023-05-02T16:27:26.339Z,23.3
2023-05-02T16:28:42.475Z,23.3
2023-05-02T16:29:58.609Z,23.3
2023-05-02T16:31:14.749Z,23.3
2023-05-02T16:32:30.873Z,23.3
2023-05-02T16:33:47.008Z,23.3
2023-05-02T16:35:03.152Z,23.3
2023-05-02T16:36:19.293Z,23.2
2023-05-02T16:37:35.423Z,23.2
2023-05-02T16:38:51.565Z,23.2
2023-05-02T16:40:07.701Z,23.2
2023-05-02T16:41:23.838Z,23.2
2023-05-02T16:42:39.982Z,23.2
2023-05-02T16:43:56.112Z,23.2
2023-05-02T16:45:12.250Z,23.2
2023-05-02T16:46:28.374Z,23.2
2023-05-02T16:47:44.504Z,23.1
2023-05-02T16:49:00.654Z,23.1
2023-05-02T16:50:16.798Z,23.1
2023-05-02T16:51:32.929Z,23.1
2023-05-02T16:52:49.052Z,23.1
2023-05-02T16:54:05.198Z,23
2023-05-02T16:55:21.338Z,23
2023-05-02T16:56:37.465Z,23
2023-05-02T16:57:53.607Z,23
2023-05-02T16:59:09.731Z,23
2023-05-02T17:00:25.868Z,22.9
2023-05-02T17:01:42.022Z,22.9
2023-05-02T17:02:58.157Z,22.9
2023-05-02T17:04:14.288Z,22.9
2023-05-02T17:05:30.415Z,22.9
2023-05-02T17:06:46.560Z,22.9
2023-05-02T17:08:02.700Z,22.8
2023-05-02T17:09:18.884Z,22.8
2023-05-02T17:10:34.093Z,22.8
2023-05-02T17:11:50.224Z,22.8